ADDS TAF Data INFO
IDs: Format: Raw Decoded Include METARs

Data at: 1129 UTC 17 Aug 2017

TAF ETSI 171010Z 1711/1720 21004KT 9999 NSW FEW130 BKN220
  PROB30 1715/1720 29010KT 9999 -TSRA SCT040CB BKN100 BKN200